createdAt,value
2022-11-12T00:01:06.682Z,10.75
2022-11-12T00:03:33.616Z,10.76
2022-11-12T00:06:00.514Z,10.88
2022-11-12T00:08:27.843Z,10.83
2022-11-12T00:10:55.047Z,10.78
2022-11-12T00:13:22.079Z,10.76
2022-11-12T00:15:49.085Z,10.83
2022-11-12T00:18:16.036Z,10.73
2022-11-12T00:20:43.090Z,10.71
2022-11-12T00:23:10.055Z,10.69
2022-11-12T00:25:37.012Z,10.89
2022-11-12T00:28:10.217Z,10.86
2022-11-12T00:30:41.554Z,10.74
2022-11-12T00:33:08.541Z,10.79
2022-11-12T00:35:35.821Z,10.74
2022-11-12T00:38:02.888Z,10.64
2022-11-12T00:40:30.071Z,10.74
2022-11-12T00:42:57.535Z,10.72
2022-11-12T00:45:24.547Z,10.77
2022-11-12T00:47:56.602Z,10.85
2022-11-12T00:50:24.058Z,10.93
2022-11-12T00:52:55.156Z,10.74
2022-11-12T00:55:22.180Z,10.84
2022-11-12T00:57:49.318Z,10.67
2022-11-12T01:00:19.054Z,10.71
2022-11-12T01:02:50.705Z,10.83
2022-11-12T01:05:21.551Z,10.76
2022-11-12T01:07:54.694Z,10.75
2022-11-12T01:10:23.363Z,10.82
2022-11-12T01:12:50.391Z,10.76
2022-11-12T01:15:17.498Z,10.79
2022-11-12T01:17:44.447Z,10.72
2022-11-12T01:20:11.609Z,10.74
2022-11-12T01:22:38.591Z,10.72
2022-11-12T01:25:06.279Z,10.99
2022-11-12T01:27:34.359Z,10.87
2022-11-12T01:30:01.298Z,10.78
2022-11-12T01:32:28.439Z,10.89
2022-11-12T01:34:55.685Z,10.96
2022-11-12T01:37:22.593Z,10.77
2022-11-12T01:39:49.548Z,10.89
2022-11-12T01:42:16.520Z,10.85
2022-11-12T01:44:46.357Z,10.85
2022-11-12T01:47:24.694Z,10.78
2022-11-12T01:50:40.408Z,10.73
2022-11-12T01:53:12.652Z,10.74
2022-11-12T01:55:40.837Z,10.74
2022-11-12T01:58:16.147Z,10.71
2022-11-12T02:00:43.422Z,10.74
2022-11-12T02:03:19.457Z,10.69
2022-11-12T02:05:53.428Z,10.73
2022-11-12T02:08:21.178Z,10.77
2022-11-12T02:10:48.093Z,10.84
2022-11-12T02:13:33.619Z,10.73
2022-11-12T02:16:00.697Z,10.69
2022-11-12T02:18:27.857Z,10.86
2022-11-12T02:20:58.149Z,10.81
2022-11-12T02:23:25.121Z,10.67
2022-11-12T02:25:52.042Z,10.62
2022-11-12T02:28:19.147Z,10.78
2022-11-12T02:30:49.527Z,10.60
2022-11-12T02:33:16.861Z,10.64
2022-11-12T02:35:43.999Z,10.74
2022-11-12T02:38:11.146Z,10.73
2022-11-12T02:40:38.115Z,10.78
2022-11-12T02:43:05.368Z,10.64
2022-11-12T02:45:32.333Z,10.63
2022-11-12T02:47:59.377Z,10.64
2022-11-12T02:50:26.332Z,10.70
2022-11-12T02:52:53.439Z,10.62
2022-11-12T02:55:20.582Z,10.57
2022-11-12T02:57:47.481Z,10.78
2022-11-12T03:00:14.876Z,10.65
2022-11-12T03:02:58.874Z,11.04
2022-11-12T03:05:32.208Z,10.74
2022-11-12T03:08:05.265Z,10.73
2022-11-12T03:10:32.573Z,10.45
2022-11-12T03:13:01.276Z,10.45
2022-11-12T03:15:30.070Z,10.56
2022-11-12T03:18:00.598Z,10.43
2022-11-12T03:20:28.429Z,10.49
2022-11-12T03:23:00.601Z,10.52
2022-11-12T03:25:28.975Z,10.57
2022-11-12T03:28:08.368Z,10.51
2022-11-12T03:30:38.635Z,10.54
2022-11-12T03:33:07.412Z,10.59
2022-11-12T03:35:35.610Z,10.49
2022-11-12T03:38:03.934Z,10.49
2022-11-12T03:40:32.088Z,10.44
2022-11-12T03:42:59.630Z,10.42
2022-11-12T03:45:28.291Z,10.51
2022-11-12T03:47:58.179Z,10.43
2022-11-12T03:50:28.846Z,10.37
2022-11-12T03:53:00.137Z,10.49
2022-11-12T03:55:29.300Z,10.51
2022-11-12T03:57:57.160Z,10.55
2022-11-12T04:00:27.263Z,10.37
2022-11-12T04:02:54.899Z,10.37
2022-11-12T04:05:41.269Z,10.46
2022-11-12T04:08:38.606Z,10.26
2022-11-12T04:11:10.205Z,10.42
2022-11-12T04:13:38.683Z,10.39
2022-11-12T04:16:44.618Z,10.28
2022-11-12T04:19:32.324Z,10.39
2022-11-12T04:22:07.377Z,10.24
2022-11-12T04:24:58.621Z,10.16
2022-11-12T04:27:29.704Z,10.25
2022-11-12T04:30:15.803Z,10.39
2022-11-12T04:32:57.063Z,10.27
2022-11-12T04:35:27.348Z,10.25
2022-11-12T04:37:55.257Z,10.09
2022-11-12T04:40:44.047Z,10.25
2022-11-12T04:43:35.252Z,10.13
2022-11-12T04:46:04.957Z,10.12
2022-11-12T04:48:32.208Z,10.21
2022-11-12T04:51:25.121Z,10.25
2022-11-12T04:53:52.293Z,10.17
2022-11-12T04:56:19.238Z,10.15
2022-11-12T04:58:46.486Z,10.19
2022-11-12T05:01:13.623Z,10.03
2022-11-12T05:03:40.994Z,9.93
2022-11-12T05:06:28.100Z,10.03
2022-11-12T05:08:55.446Z,9.94
2022-11-12T05:11:22.378Z,9.83
2022-11-12T05:13:49.340Z,9.99
2022-11-12T05:16:16.256Z,9.87
2022-11-12T05:18:43.179Z,9.91
2022-11-12T05:21:28.705Z,9.84
2022-11-12T05:23:55.614Z,9.95
2022-11-12T05:26:22.602Z,9.79
2022-11-12T05:28:49.533Z,9.78
2022-11-12T05:31:16.439Z,9.80
2022-11-12T05:33:43.356Z,9.96
2022-11-12T05:36:10.323Z,9.83
2022-11-12T05:38:39.152Z,9.70
2022-11-12T05:41:06.280Z,9.66
2022-11-12T05:43:33.216Z,9.58
2022-11-12T05:46:00.153Z,9.62
2022-11-12T05:48:27.600Z,9.60
2022-11-12T05:53:42.999Z,9.61
2022-11-12T05:56:11.048Z,9.71
2022-11-12T05:58:38.337Z,9.63
2022-11-12T06:01:05.617Z,9.47
2022-11-12T06:03:32.706Z,9.37
2022-11-12T06:05:59.630Z,9.45
2022-11-12T06:08:26.812Z,9.29
2022-11-12T06:10:54.694Z,9.40
2022-11-12T06:13:24.031Z,9.45
2022-11-12T06:15:55.255Z,9.55
2022-11-12T06:18:23.982Z,9.46
2022-11-12T06:21:10.190Z,9.48
2022-11-12T06:23:37.363Z,9.42
2022-11-12T06:26:04.937Z,9.47
2022-11-12T06:28:31.967Z,9.40
2022-11-12T06:30:59.017Z,9.17
2022-11-12T06:33:25.972Z,9.35
2022-11-12T06:36:05.336Z,9.42
2022-11-12T06:38:39.975Z,9.46
2022-11-12T06:41:09.330Z,9.18
2022-11-12T06:43:36.517Z,9.12
2022-11-12T06:46:13.793Z,9.22
2022-11-12T06:48:41.780Z,9.01
2022-11-12T06:51:20.858Z,9.21
2022-11-12T06:53:49.456Z,9.20
2022-11-12T06:56:16.747Z,9.31
2022-11-12T06:58:43.944Z,9.31
2022-11-12T07:01:17.466Z,9.23
2022-11-12T07:03:45.022Z,9.30
2022-11-12T07:06:20.521Z,9.23
2022-11-12T07:08:49.729Z,9.43
2022-11-12T07:11:18.863Z,9.31
2022-11-12T07:13:47.146Z,9.35
2022-11-12T07:16:18.591Z,9.37
2022-11-12T07:18:47.137Z,9.36
2022-11-12T07:21:18.402Z,9.55
2022-11-12T07:23:46.552Z,9.40
2022-11-12T07:26:23.313Z,9.36
2022-11-12T07:28:52.398Z,9.38
2022-11-12T07:31:20.432Z,9.36
2022-11-12T07:33:50.886Z,9.34
2022-11-12T07:36:21.125Z,9.32
2022-11-12T07:38:52.757Z,9.42
2022-11-12T07:41:23.329Z,9.35
2022-11-12T07:43:53.676Z,9.39
2022-11-12T07:46:25.110Z,9.35
2022-11-12T07:48:53.647Z,9.48
2022-11-12T07:51:27.014Z,9.58
2022-11-12T07:53:59.536Z,9.57
2022-11-12T07:56:28.119Z,9.82
2022-11-12T07:58:55.431Z,9.65
2022-11-12T08:01:41.014Z,9.61
2022-11-12T08:04:10.684Z,9.50
2022-11-12T08:06:38.392Z,9.57
2022-11-12T08:09:08.413Z,9.57
2022-11-12T08:11:36.084Z,9.49
2022-11-12T08:14:03.567Z,9.45
2022-11-12T08:16:30.608Z,9.57
2022-11-12T08:18:57.603Z,9.54
2022-11-12T08:21:25.035Z,9.89
2022-11-12T08:23:51.974Z,9.69
2022-11-12T08:26:21.011Z,9.75
2022-11-12T08:28:48.325Z,9.94
2022-11-12T08:31:21.103Z,9.79
2022-11-12T08:33:48.067Z,9.79
2022-11-12T08:36:17.330Z,9.71
2022-11-12T08:38:44.462Z,9.73
2022-11-12T08:41:14.533Z,9.71
2022-11-12T08:43:42.628Z,9.80
2022-11-12T08:46:10.302Z,9.87
2022-11-12T08:48:37.530Z,9.83
2022-11-12T08:51:05.947Z,9.99
2022-11-12T08:53:33.001Z,9.94
2022-11-12T08:56:00.123Z,9.83
2022-11-12T08:58:27.627Z,9.87
2022-11-12T09:00:56.518Z,10.17
2022-11-12T09:03:26.307Z,9.97
2022-11-12T09:05:54.274Z,9.91
2022-11-12T09:08:25.458Z,10.11
2022-11-12T09:10:52.873Z,9.92
2022-11-12T09:13:21.051Z,9.99
2022-11-12T09:15:48.069Z,9.93
2022-11-12T09:18:17.906Z,9.93
2022-11-12T09:20:45.806Z,9.97
2022-11-12T09:23:17.910Z,9.85
2022-11-12T09:25:45.135Z,9.89
2022-11-12T09:28:19.276Z,10.07
2022-11-12T09:30:51.567Z,9.99
2022-11-12T09:33:23.401Z,9.88
2022-11-12T09:35:51.692Z,9.98
2022-11-12T09:38:20.012Z,10.07
2022-11-12T09:40:52.666Z,9.97
2022-11-12T09:43:37.565Z,10.15
2022-11-12T09:46:36.559Z,9.93
2022-11-12T09:49:33.592Z,9.99
2022-11-12T09:52:14.651Z,10.17
2022-11-12T09:54:42.541Z,10.10
2022-11-12T09:57:12.607Z,10.02
2022-11-12T09:59:42.811Z,10.03
2022-11-12T10:02:50.864Z,10.08
2022-11-12T10:05:41.115Z,10.64
2022-11-12T10:08:57.226Z,10.64
2022-11-12T10:11:54.078Z,10.13
2022-11-12T10:15:30.756Z,10.15
2022-11-12T10:18:25.071Z,9.97
2022-11-12T10:21:28.990Z,10.27
2022-11-12T10:24:00.263Z,10.15
2022-11-12T10:26:28.737Z,9.98
2022-11-12T10:29:14.242Z,10.15
2022-11-12T10:31:41.188Z,10.02
2022-11-12T10:34:14.614Z,10.06
2022-11-12T10:36:48.920Z,10.03
2022-11-12T10:39:35.911Z,10.05
2022-11-12T10:42:03.992Z,10.11
2022-11-12T10:44:31.111Z,10.57
2022-11-12T10:47:23.111Z,10.41
2022-11-12T10:50:30.126Z,10.38
2022-11-12T10:53:04.686Z,10.18
2022-11-12T10:55:56.675Z,10.36
2022-11-12T10:58:23.950Z,10.06
2022-11-12T11:01:07.286Z,10.19
2022-11-12T11:03:47.119Z,10.38
2022-11-12T11:06:16.795Z,10.24
2022-11-12T11:08:50.172Z,10.14
2022-11-12T11:11:16.958Z,10.26
2022-11-12T11:13:54.412Z,10.47
2022-11-12T11:16:30.085Z,10.55
2022-11-12T11:19:02.422Z,10.49
2022-11-12T11:22:05.366Z,10.48
2022-11-12T11:24:48.339Z,10.47
2022-11-12T11:27:59.574Z,10.49
2022-11-12T11:30:26.741Z,10.23
2022-11-12T11:33:36.116Z,10.26
2022-11-12T11:36:40.422Z,10.16
2022-11-12T11:39:36.242Z,10.15
2022-11-12T11:42:47.109Z,10.22
2022-11-12T11:45:17.172Z,10.58
2022-11-12T11:48:01.525Z,10.54
2022-11-12T11:50:39.361Z,10.45
2022-11-12T11:53:33.765Z,10.42
2022-11-12T11:56:10.380Z,10.29
2022-11-12T11:59:03.934Z,10.30
2022-11-12T12:02:18.622Z,10.41
2022-11-12T12:05:00.206Z,10.45
2022-11-12T12:08:00.759Z,10.31
2022-11-12T12:11:09.219Z,10.42
2022-11-12T12:13:56.242Z,10.43
2022-11-12T12:16:52.103Z,10.42
2022-11-12T12:19:51.715Z,10.34
2022-11-12T12:22:35.988Z,10.31
2022-11-12T12:25:26.063Z,10.61
2022-11-12T12:28:32.859Z,10.56
2022-11-12T12:31:08.520Z,10.58
2022-11-12T12:33:45.968Z,10.73
2022-11-12T12:36:41.414Z,10.59
2022-11-12T12:39:26.079Z,10.65
2022-11-12T12:42:09.729Z,10.68
2022-11-12T12:45:03.398Z,10.47
2022-11-12T12:47:37.365Z,10.46
2022-11-12T12:50:12.972Z,10.59
2022-11-12T12:53:15.505Z,10.57
2022-11-12T12:55:47.980Z,10.53
2022-11-12T12:58:27.445Z,10.44
2022-11-12T13:01:35.357Z,10.48
2022-11-12T13:04:08.569Z,10.48
2022-11-12T13:06:39.721Z,10.55
2022-11-12T13:09:12.887Z,10.65
2022-11-12T13:12:01.268Z,10.44
2022-11-12T13:14:37.221Z,10.46
2022-11-12T13:17:13.209Z,10.48
2022-11-12T13:19:58.065Z,10.49
2022-11-12T13:22:24.860Z,10.50
2022-11-12T13:25:10.654Z,10.61
2022-11-12T13:27:40.629Z,10.52
2022-11-12T13:30:16.257Z,10.73
2022-11-12T13:32:51.867Z,10.52
2022-11-12T13:35:39.576Z,10.67
2022-11-12T13:38:09.332Z,10.51
2022-11-12T13:41:00.271Z,10.81
2022-11-12T13:43:33.940Z,10.63
2022-11-12T13:46:10.897Z,10.48
2022-11-12T13:48:51.917Z,10.71
2022-11-12T13:51:46.547Z,10.59
2022-11-12T13:54:25.416Z,10.40
2022-11-12T13:56:52.317Z,10.45
2022-11-12T13:59:23.290Z,10.51
2022-11-12T14:01:50.781Z,10.38
2022-11-12T14:04:24.325Z,10.46
2022-11-12T14:06:56.492Z,10.34
2022-11-12T14:09:44.359Z,10.31
2022-11-12T14:12:21.510Z,10.25
2022-11-12T14:15:13.049Z,10.30
2022-11-12T14:17:45.998Z,10.38
2022-11-12T14:20:35.306Z,10.38
2022-11-12T14:23:24.432Z,10.33
2022-11-12T14:25:54.905Z,10.29
2022-11-12T14:28:36.826Z,10.35
2022-11-12T14:31:11.747Z,10.42
2022-11-12T14:33:38.687Z,10.38
2022-11-12T14:36:15.489Z,10.23
2022-11-12T14:38:51.967Z,10.27
2022-11-12T14:41:27.084Z,10.29
2022-11-12T14:44:11.503Z,10.28
2022-11-12T14:46:48.373Z,10.24
2022-11-12T14:49:40.684Z,10.33
2022-11-12T14:52:27.872Z,10.25
2022-11-12T14:55:06.208Z,10.31
2022-11-12T14:57:33.334Z,10.30
2022-11-12T15:00:00.327Z,10.31
2022-11-12T15:02:48.886Z,10.54
2022-11-12T15:05:23.557Z,10.41
2022-11-12T15:08:33.524Z,10.25
2022-11-12T15:11:25.770Z,10.18
2022-11-12T15:13:56.388Z,10.22
2022-11-12T15:16:35.736Z,10.25
2022-11-12T15:19:13.763Z,10.14
2022-11-12T15:21:55.704Z,10.14
2022-11-12T15:24:33.574Z,10.17
2022-11-12T15:27:22.599Z,10.12
2022-11-12T15:29:49.566Z,10.13
2022-11-12T15:32:16.360Z,10.11
2022-11-12T15:34:45.830Z,10.07
2022-11-12T15:37:29.278Z,10.12
2022-11-12T15:39:59.839Z,10.21
2022-11-12T15:42:41.944Z,10.18
2022-11-12T15:45:21.040Z,10.42
2022-11-12T15:47:48.453Z,10.57
2022-11-12T15:50:21.600Z,10.30
2022-11-12T15:52:49.359Z,10.38
2022-11-12T15:55:19.410Z,10.23
2022-11-12T15:57:52.736Z,10.26
2022-11-12T16:00:24.598Z,10.25
2022-11-12T16:03:16.727Z,10.19
2022-11-12T16:05:44.822Z,10.22
2022-11-12T16:08:12.241Z,10.65
2022-11-12T16:10:42.667Z,10.57
2022-11-12T16:13:20.981Z,10.28
2022-11-12T16:15:51.604Z,10.30
2022-11-12T16:18:19.000Z,10.32
2022-11-12T16:20:47.266Z,10.46
2022-11-12T16:23:14.348Z,10.34
2022-11-12T16:25:43.133Z,10.30
2022-11-12T16:28:19.097Z,10.31
2022-11-12T16:30:47.837Z,10.41
2022-11-12T16:33:15.058Z,10.35
2022-11-12T16:35:42.294Z,10.43
2022-11-12T16:38:17.929Z,10.38
2022-11-12T16:40:45.765Z,10.55
2022-11-12T16:43:12.820Z,10.43
2022-11-12T16:45:42.994Z,10.39
2022-11-12T16:48:27.934Z,10.40
2022-11-12T16:50:54.916Z,10.39
2022-11-12T16:53:21.829Z,10.58
2022-11-12T16:55:49.849Z,10.47
2022-11-12T16:58:17.040Z,10.44
2022-11-12T17:00:50.075Z,10.42
2022-11-12T17:03:17.084Z,10.36
2022-11-12T17:05:44.218Z,10.45
2022-11-12T17:08:11.222Z,10.43
2022-11-12T17:10:38.617Z,10.37
2022-11-12T17:13:05.560Z,10.52
2022-11-12T17:15:32.466Z,10.49
2022-11-12T17:17:59.403Z,10.38
2022-11-12T17:20:26.379Z,10.46
2022-11-12T17:22:53.297Z,10.42
2022-11-12T17:25:20.227Z,10.44
2022-11-12T17:27:47.231Z,10.43
2022-11-12T17:30:14.423Z,10.43
2022-11-12T17:32:41.446Z,10.37
2022-11-12T17:35:08.617Z,10.44
2022-11-12T17:37:35.558Z,10.46
2022-11-12T17:40:02.760Z,10.63
2022-11-12T17:42:29.925Z,10.62
2022-11-12T17:44:56.923Z,10.54
2022-11-12T17:47:23.902Z,10.51
2022-11-12T17:49:50.854Z,10.51
2022-11-12T17:52:17.844Z,10.51
2022-11-12T17:54:44.809Z,10.51
2022-11-12T17:57:11.887Z,10.49
2022-11-12T17:59:38.801Z,10.37
2022-11-12T18:02:05.735Z,10.38
2022-11-12T18:04:32.644Z,10.26
2022-11-12T18:06:59.624Z,10.46
2022-11-12T18:09:26.565Z,10.41
2022-11-12T18:11:54.897Z,10.28
2022-11-12T18:14:23.125Z,10.26
2022-11-12T18:16:50.132Z,10.32
2022-11-12T18:19:17.372Z,10.25
2022-11-12T18:21:44.486Z,10.22
2022-11-12T18:24:15.972Z,10.13
2022-11-12T18:26:44.320Z,10.12
2022-11-12T18:29:12.782Z,10.31
2022-11-12T18:31:40.701Z,10.25
2022-11-12T18:34:13.570Z,10.25
2022-11-12T18:36:40.494Z,10.22
2022-11-12T18:39:07.643Z,10.26
2022-11-12T18:41:34.613Z,10.19
2022-11-12T18:44:02.093Z,10.33
2022-11-12T18:46:29.079Z,10.20
2022-11-12T18:48:56.010Z,10.26
2022-11-12T18:51:23.157Z,10.25
2022-11-12T18:53:50.123Z,10.24
2022-11-12T18:56:20.370Z,10.27
2022-11-12T18:58:48.243Z,10.46
2022-11-12T19:01:23.951Z,10.26
2022-11-12T19:03:56.600Z,10.17
2022-11-12T19:06:25.051Z,10.14
2022-11-12T19:08:58.050Z,10.28
2022-11-12T19:11:24.980Z,10.30
2022-11-12T19:13:54.235Z,10.19
2022-11-12T19:16:23.173Z,10.24
2022-11-12T19:18:52.254Z,10.14
2022-11-12T19:21:25.640Z,10.35
2022-11-12T19:23:57.135Z,10.19
2022-11-12T19:26:24.210Z,10.20
2022-11-12T19:28:51.253Z,10.24
2022-11-12T19:31:23.227Z,10.05
2022-11-12T19:33:50.961Z,10.17
2022-11-12T19:36:24.255Z,10.15
2022-11-12T19:38:56.685Z,10.21
2022-11-12T19:41:24.589Z,10.15
2022-11-12T19:43:52.380Z,10.13
2022-11-12T19:46:20.389Z,10.22
2022-11-12T19:48:47.340Z,10.12
2022-11-12T19:51:14.583Z,10.10
2022-11-12T19:53:46.558Z,10.11
2022-11-12T19:56:17.286Z,10.06
2022-11-12T19:58:48.568Z,10.11
2022-11-12T20:01:18.369Z,10.13
2022-11-12T20:03:45.947Z,10.06
2022-11-12T20:06:27.247Z,10.00
2022-11-12T20:08:54.253Z,10.08
2022-11-12T20:11:21.412Z,10.07
2022-11-12T20:13:48.388Z,10.22
2022-11-12T20:16:23.920Z,10.07
2022-11-12T20:18:56.367Z,10.02
2022-11-12T20:21:24.479Z,10.08
2022-11-12T20:23:51.454Z,10.07
2022-11-12T20:26:18.497Z,10.10
2022-11-12T20:28:45.731Z,10.06
2022-11-12T20:31:21.995Z,10.05
2022-11-12T20:33:50.260Z,10.22
2022-11-12T20:36:22.458Z,10.13
2022-11-12T20:38:50.502Z,10.06
2022-11-12T20:41:23.900Z,9.98
2022-11-12T20:43:57.680Z,9.93
2022-11-12T20:46:26.470Z,10.08
2022-11-12T20:48:56.782Z,9.93
2022-11-12T20:51:28.587Z,9.86
2022-11-12T20:54:00.290Z,9.87
2022-11-12T20:56:29.976Z,9.81
2022-11-12T20:58:58.376Z,9.92
2022-11-12T21:01:27.492Z,9.92
2022-11-12T21:03:54.518Z,9.77
2022-11-12T21:06:26.067Z,9.87
2022-11-12T21:08:53.237Z,9.91
2022-11-12T21:11:23.574Z,10.02
2022-11-12T21:13:50.804Z,9.99
2022-11-12T21:16:17.881Z,9.98
2022-11-12T21:18:44.887Z,9.99
2022-11-12T21:21:19.258Z,9.90
2022-11-12T21:23:49.197Z,9.77
2022-11-12T21:26:21.429Z,9.83
2022-11-12T21:28:54.454Z,9.86
2022-11-12T21:31:25.441Z,9.83
2022-11-12T21:33:55.038Z,9.94
2022-11-12T21:36:23.401Z,9.89
2022-11-12T21:38:50.695Z,9.84
2022-11-12T21:41:21.510Z,9.87
2022-11-12T21:43:49.254Z,9.81
2022-11-12T21:46:22.334Z,9.91
2022-11-12T21:48:54.888Z,9.81
2022-11-12T21:51:26.450Z,9.75
2022-11-12T21:54:03.326Z,9.85
2022-11-12T21:56:30.877Z,9.67
2022-11-12T21:59:01.538Z,9.75
2022-11-12T22:01:31.656Z,9.79
2022-11-12T22:03:59.836Z,9.83
2022-11-12T22:06:29.782Z,9.78
2022-11-12T22:08:58.337Z,9.63
2022-11-12T22:11:27.899Z,9.74
2022-11-12T22:13:54.952Z,9.75
2022-11-12T22:16:25.421Z,9.84
2022-11-12T22:18:55.027Z,9.75
2022-11-12T22:21:27.293Z,9.75
2022-11-12T22:23:56.756Z,9.60
2022-11-12T22:26:27.616Z,9.79
2022-11-12T22:28:57.562Z,9.94
2022-11-12T22:31:28.639Z,9.86
2022-11-12T22:33:58.511Z,9.78
2022-11-12T22:36:29.067Z,9.91
2022-11-12T22:38:56.878Z,9.85
2022-11-12T22:41:30.227Z,9.82
2022-11-12T22:44:00.911Z,9.81
2022-11-12T22:46:35.554Z,9.79
2022-11-12T22:49:04.506Z,9.66
2022-11-12T22:51:33.578Z,9.73
2022-11-12T22:54:04.032Z,9.92
2022-11-12T22:56:34.513Z,9.94
2022-11-12T22:59:03.641Z,9.76
2022-11-12T23:01:34.197Z,9.81
2022-11-12T23:04:06.502Z,9.75
2022-11-12T23:06:33.549Z,9.62
2022-11-12T23:09:01.541Z,9.77
2022-11-12T23:11:29.090Z,9.80
2022-11-12T23:13:56.665Z,9.69
2022-11-12T23:16:30.127Z,9.69
2022-11-12T23:18:57.465Z,9.91
2022-11-12T23:21:29.050Z,9.68
2022-11-12T23:23:59.919Z,9.75
2022-11-12T23:26:33.775Z,9.80
2022-11-12T23:29:01.786Z,9.71
2022-11-12T23:31:32.239Z,9.58
2022-11-12T23:34:00.401Z,9.50
2022-11-12T23:36:28.428Z,9.61
2022-11-12T23:38:57.482Z,9.57
2022-11-12T23:41:26.741Z,9.56
2022-11-12T23:43:55.238Z,9.70
2022-11-12T23:46:22.783Z,9.55
2022-11-12T23:48:50.080Z,9.69
2022-11-12T23:51:21.781Z,9.75
2022-11-12T23:53:49.633Z,9.63
2022-11-12T23:56:19.719Z,9.83
2022-11-12T23:58:47.514Z,9.64
